Time;durP1;ratioP1;P1;durP2;ratioP2;P2;SDS_P1;SDS_P2;PMS_P1;PMS_P2;Temp;Humidity;BMP_temperature;BMP_pressure;BME280_temperature;BME280_humidity;BME280_pressure;Samples;Min_cycle;Max_cycle;Signal;HPM_P1;HPM_P2
2023/04/03 00:00:04;;;;;;;;;;;7.90;47.20;;;;;;5034136;28;20333;-59
2023/04/03 00:02:29;;;;;;;;;;;7.80;47.20;;;;;;5034162;28;19920;-59
2023/04/03 00:04:55;;;;;;;;;;;7.80;47.20;;;;;;5033769;28;20360;-59
2023/04/03 00:07:20;;;;;;;;;;;7.80;47.40;;;;;;5032207;28;19956;-59
2023/04/03 00:09:46;;;;;;;;;;;7.80;47.40;;;;;;5033718;28;19909;-59
2023/04/03 00:12:11;;;;;;;;;;;7.70;47.40;;;;;;5034254;28;19941;-59
2023/04/03 00:14:37;;;;;;;;;;;7.70;47.40;;;;;;5033622;28;19967;-59
2023/04/03 00:17:02;;;;;;;;;;;7.70;47.50;;;;;;5031505;28;19968;-59
2023/04/03 00:19:27;;;;;;;;;;;7.70;47.60;;;;;;5027622;28;19927;-59
2023/04/03 00:21:53;;;;;;;;;;;7.60;47.50;;;;;;5022613;28;20008;-58
2023/04/03 00:24:19;;;;;;;;;;;7.60;47.60;;;;;;5013765;28;19960;-58
2023/04/03 00:26:44;;;;;;;;;;;7.50;47.60;;;;;;5026000;28;19983;-59
2023/04/03 00:29:10;;;;;;;;;;;7.50;47.70;;;;;;5033342;28;19913;-59
2023/04/03 00:31:35;;;;;;;;;;;7.40;47.80;;;;;;5033910;28;19913;-59
2023/04/03 00:34:01;;;;;;;;;;;7.30;47.90;;;;;;5013491;28;20335;-59
2023/04/03 00:36:26;;;;;;;;;;;7.30;47.90;;;;;;5047234;28;19919;-59
2023/04/03 00:38:52;;;;;;;;;;;7.20;48.00;;;;;;5053080;28;20062;-59
2023/04/03 00:41:17;;;;;;;;;;;7.10;47.90;;;;;;5047000;28;20277;-61
2023/04/03 00:43:42;;;;;;;;;;;7.00;48.00;;;;;;5024038;28;20020;-59
2023/04/03 00:46:08;;;;;;;;;;;6.90;48.10;;;;;;5028139;28;19913;-59
2023/04/03 00:48:35;;;;;;;;;;;6.90;48.30;;;;;;5033092;28;20305;-62
2023/04/03 00:51:02;;;;;;;;;;;6.80;48.30;;;;;;5031454;28;19913;-59
2023/04/03 00:53:33;;;;;;;;;;;6.70;48.30;;;;;;5032060;28;20334;-59
2023/04/03 00:55:59;;;;;;;;;;;6.60;48.40;;;;;;5032327;28;19963;-59
2023/04/03 00:58:28;;;;;;;;;;;6.50;48.40;;;;;;5032017;28;19921;-59
2023/04/03 01:00:57;;;;;;;;;;;6.40;48.40;;;;;;5031155;28;19919;-60
2023/04/03 01:03:22;;;;;;;;;;;6.30;48.60;;;;;;5031977;28;19967;-59
2023/04/03 01:05:48;;;;;;;;;;;6.20;48.90;;;;;;5031985;28;19913;-61
2023/04/03 01:08:13;;;;;;;;;;;6.20;49.20;;;;;;5033257;28;19921;-59
2023/04/03 01:10:39;;;;;;;;;;;6.10;49.20;;;;;;5030955;28;19913;-59
2023/04/03 01:13:17;;;;;;;;;;;6.10;49.30;;;;;;5031300;28;19928;-57
2023/04/03 01:15:43;;;;;;;;;;;6.10;49.40;;;;;;5031104;28;19959;-58
2023/04/03 01:18:09;;;;;;;;;;;6.00;49.70;;;;;;5029828;28;19917;-58
2023/04/03 01:20:50;;;;;;;;;;;6.00;49.50;;;;;;5031816;28;19917;-58
2023/04/03 01:23:45;;;;;;;;;;;6.00;49.70;;;;;;5016371;28;20016;-58
2023/04/03 01:26:11;;;;;;;;;;;5.80;49.60;;;;;;5012749;28;20354;-58
2023/04/03 01:28:37;;;;;;;;;;;5.80;49.60;;;;;;5036371;28;19921;-58
2023/04/03 01:31:17;;;;;;;;;;;5.80;49.50;;;;;;5030320;28;19917;-59
2023/04/03 01:33:42;;;;;;;;;;;5.70;49.30;;;;;;5028993;28;19971;-58
2023/04/03 01:36:09;;;;;;;;;;;5.60;49.20;;;;;;5029773;28;20324;-61
2023/04/03 01:38:34;;;;;;;;;;;5.50;49.20;;;;;;5025453;28;19917;-58
2023/04/03 01:41:00;;;;;;;;;;;5.40;49.20;;;;;;5039093;28;20359;-58
2023/04/03 01:43:26;;;;;;;;;;;5.30;49.20;;;;;;5030786;28;19921;-60
2023/04/03 01:45:54;;;;;;;;;;;5.20;49.30;;;;;;5030451;28;19914;-63
2023/04/03 01:48:19;;;;;;;;;;;5.10;49.60;;;;;;5030196;28;19956;-59
2023/04/03 01:50:45;;;;;;;;;;;5.10;49.70;;;;;;5031892;28;19917;-59
2023/04/03 01:53:11;;;;;;;;;;;5.10;50.30;;;;;;5030129;28;19917;-59
2023/04/03 01:55:36;;;;;;;;;;;5.10;50.40;;;;;;5031990;28;19917;-60
2023/04/03 01:58:01;;;;;;;;;;;5.00;50.40;;;;;;5032253;28;19920;-59
2023/04/03 02:00:27;;;;;;;;;;;5.00;50.20;;;;;;5032193;28;20364;-58
2023/04/03 02:02:52;;;;;;;;;;;5.00;50.10;;;;;;5031886;28;20018;-58
2023/04/03 02:05:18;;;;;;;;;;;4.90;50.10;;;;;;5031692;28;19942;-57
2023/04/03 02:07:43;;;;;;;;;;;4.90;50.00;;;;;;5031823;28;20000;-58
2023/04/03 02:10:09;;;;;;;;;;;4.80;49.90;;;;;;5031570;28;19916;-57
2023/04/03 02:12:34;;;;;;;;;;;4.80;49.90;;;;;;5031523;28;19917;-58
2023/04/03 02:15:00;;;;;;;;;;;4.70;49.90;;;;;;5031629;28;19909;-58
2023/04/03 02:17:26;;;;;;;;;;;4.70;49.90;;;;;;5041624;28;19917;-58
2023/04/03 02:19:51;;;;;;;;;;;4.60;50.00;;;;;;5044995;28;20035;-57
2023/04/03 02:22:17;;;;;;;;;;;4.60;50.30;;;;;;5023747;28;19913;-57
2023/04/03 02:24:42;;;;;;;;;;;4.50;50.30;;;;;;5014527;28;19921;-58
2023/04/03 02:27:08;;;;;;;;;;;4.50;50.60;;;;;;5030483;28;19917;-58
2023/04/03 02:29:33;;;;;;;;;;;4.50;50.50;;;;;;5030239;28;19940;-58
2023/04/03 02:31:58;;;;;;;;;;;4.40;50.70;;;;;;5029214;28;19936;-60
2023/04/03 02:34:24;;;;;;;;;;;4.40;50.70;;;;;;5027461;28;20023;-58
2023/04/03 02:36:50;;;;;;;;;;;4.30;50.70;;;;;;5047780;28;20287;-59
2023/04/03 02:39:16;;;;;;;;;;;4.30;50.80;;;;;;5034557;28;20361;-60
2023/04/03 02:41:41;;;;;;;;;;;4.30;51.00;;;;;;5031456;28;20011;-58
2023/04/03 02:44:09;;;;;;;;;;;4.30;50.80;;;;;;5024938;28;19928;-60
2023/04/03 02:46:34;;;;;;;;;;;4.20;50.60;;;;;;5033289;28;19913;-59
2023/04/03 02:49:00;;;;;;;;;;;4.10;50.50;;;;;;5029342;28;19958;-59
2023/04/03 02:51:25;;;;;;;;;;;4.10;50.40;;;;;;5033362;28;19909;-57
2023/04/03 02:53:51;;;;;;;;;;;4.00;50.40;;;;;;5030130;28;19918;-58
2023/04/03 02:56:17;;;;;;;;;;;3.90;50.80;;;;;;5033239;28;19913;-58
2023/04/03 02:58:43;;;;;;;;;;;4.00;51.60;;;;;;5035115;28;19952;-57
2023/04/03 03:01:09;;;;;;;;;;;4.00;51.80;;;;;;5034286;28;20006;-57
2023/04/03 03:03:35;;;;;;;;;;;4.00;51.80;;;;;;5032377;28;19999;-58
2023/04/03 03:06:04;;;;;;;;;;;4.00;52.10;;;;;;5015409;28;19925;-57
2023/04/03 03:08:30;;;;;;;;;;;4.10;52.20;;;;;;5033226;28;19917;-58
2023/04/03 03:10:55;;;;;;;;;;;4.10;52.20;;;;;;5035122;28;19917;-58
2023/04/03 03:13:21;;;;;;;;;;;4.10;52.50;;;;;;5033781;28;19944;-59
2023/04/03 03:15:46;;;;;;;;;;;4.20;52.80;;;;;;5032775;28;19918;-59
2023/04/03 03:18:11;;;;;;;;;;;4.20;52.90;;;;;;5034969;28;19917;-59
2023/04/03 03:20:37;;;;;;;;;;;4.30;53.30;;;;;;5025718;28;19913;-59
2023/04/03 03:23:02;;;;;;;;;;;4.40;53.50;;;;;;5034600;28;19960;-59
2023/04/03 03:25:28;;;;;;;;;;;4.50;53.50;;;;;;5034789;28;19913;-63
2023/04/03 03:27:53;;;;;;;;;;;4.50;53.40;;;;;;5034651;28;19913;-61
2023/04/03 03:30:18;;;;;;;;;;;4.60;53.40;;;;;;5034656;28;19913;-59
2023/04/03 03:32:44;;;;;;;;;;;4.60;53.30;;;;;;5034773;28;19979;-59
2023/04/03 03:35:09;;;;;;;;;;;4.60;53.20;;;;;;5040919;28;19916;-59
2023/04/03 03:37:35;;;;;;;;;;;4.60;53.10;;;;;;5053494;28;20364;-58
2023/04/03 03:40:00;;;;;;;;;;;4.70;53.10;;;;;;5034323;28;19917;-58
2023/04/03 03:42:25;;;;;;;;;;;4.70;53.30;;;;;;5034707;28;19917;-59
2023/04/03 03:44:51;;;;;;;;;;;4.70;53.20;;;;;;5033927;28;19917;-59
2023/04/03 03:47:17;;;;;;;;;;;4.80;53.30;;;;;;5034624;28;20280;-59
2023/04/03 03:49:42;;;;;;;;;;;4.80;53.20;;;;;;5034770;28;19917;-59
2023/04/03 03:52:10;;;;;;;;;;;4.80;53.30;;;;;;5034118;28;19920;-59
2023/04/03 03:54:36;;;;;;;;;;;4.80;53.30;;;;;;5034234;28;19925;-59
2023/04/03 03:57:01;;;;;;;;;;;4.80;53.20;;;;;;5034588;28;19909;-59
2023/04/03 03:59:27;;;;;;;;;;;4.80;53.10;;;;;;5034002;28;19917;-59
2023/04/03 04:01:52;;;;;;;;;;;4.80;53.10;;;;;;5034462;28;19915;-59
2023/04/03 04:04:17;;;;;;;;;;;4.80;53.20;;;;;;5034020;28;20284;-59
2023/04/03 04:06:43;;;;;;;;;;;4.80;53.50;;;;;;5034495;28;19916;-58
2023/04/03 04:09:08;;;;;;;;;;;4.90;53.50;;;;;;5034003;28;19921;-58
2023/04/03 04:11:34;;;;;;;;;;;4.90;53.40;;;;;;5034078;28;19960;-58
2023/04/03 04:13:59;;;;;;;;;;;5.00;53.40;;;;;;5034053;28;20262;-58
2023/04/03 04:16:25;;;;;;;;;;;5.00;53.40;;;;;;5037175;28;19963;-58
2023/04/03 04:18:50;;;;;;;;;;;5.00;53.30;;;;;;5051832;28;19924;-59
2023/04/03 04:21:16;;;;;;;;;;;5.00;53.30;;;;;;5026102;28;19913;-57
2023/04/03 04:23:41;;;;;;;;;;;5.00;53.30;;;;;;5032571;28;20031;-58
2023/04/03 04:26:07;;;;;;;;;;;5.00;53.30;;;;;;5030685;28;20336;-60
2023/04/03 04:28:32;;;;;;;;;;;5.00;53.30;;;;;;5024526;28;19964;-62
2023/04/03 04:30:57;;;;;;;;;;;5.00;53.30;;;;;;5032294;28;19913;-59
2023/04/03 04:33:23;;;;;;;;;;;5.00;53.30;;;;;;5030643;28;19924;-57
2023/04/03 04:35:48;;;;;;;;;;;5.00;53.20;;;;;;5044781;28;19920;-57
2023/04/03 04:38:14;;;;;;;;;;;5.00;53.20;;;;;;5053038;28;19977;-58
2023/04/03 04:40:40;;;;;;;;;;;5.00;53.30;;;;;;5052522;28;20364;-58
2023/04/03 04:43:05;;;;;;;;;;;5.00;53.00;;;;;;5029698;28;19936;-59
2023/04/03 04:45:31;;;;;;;;;;;4.90;53.20;;;;;;5032091;28;19913;-57
2023/04/03 04:47:56;;;;;;;;;;;5.00;53.30;;;;;;5042721;28;19912;-59
2023/04/03 04:50:22;;;;;;;;;;;4.90;53.40;;;;;;5033384;28;19960;-58
2023/04/03 04:52:47;;;;;;;;;;;4.90;53.30;;;;;;5030955;28;19947;-57
2023/04/03 04:55:13;;;;;;;;;;;4.90;53.20;;;;;;5031954;28;19953;-59
2023/04/03 04:57:38;;;;;;;;;;;4.90;53.40;;;;;;5030925;28;19953;-58
2023/04/03 05:00:04;;;;;;;;;;;4.90;53.40;;;;;;5031953;28;19913;-59
2023/04/03 05:02:30;;;;;;;;;;;4.90;53.40;;;;;;5024576;28;19931;-62
2023/04/03 05:04:56;;;;;;;;;;;4.90;53.50;;;;;;5032838;28;19921;-59
2023/04/03 05:07:21;;;;;;;;;;;5.00;53.70;;;;;;5031488;28;20019;-58
2023/04/03 05:09:47;;;;;;;;;;;5.00;54.20;;;;;;5032519;28;19920;-58
2023/04/03 05:12:12;;;;;;;;;;;5.20;54.50;;;;;;5031395;28;20242;-58
2023/04/03 05:14:38;;;;;;;;;;;5.40;54.70;;;;;;5029866;28;19952;-58
2023/04/03 05:17:03;;;;;;;;;;;5.60;54.60;;;;;;5016510;28;19963;-59
2023/04/03 05:19:28;;;;;;;;;;;5.80;54.70;;;;;;5032112;28;20008;-58
2023/04/03 05:21:54;;;;;;;;;;;6.10;54.40;;;;;;5031396;28;19972;-59
2023/04/03 05:24:20;;;;;;;;;;;6.40;54.40;;;;;;5028317;28;20023;-59
2023/04/03 05:26:45;;;;;;;;;;;6.70;54.30;;;;;;5030743;28;19965;-59
2023/04/03 05:29:11;;;;;;;;;;;7.00;54.00;;;;;;5030746;28;20427;-58
2023/04/03 05:31:36;;;;;;;;;;;7.30;53.70;;;;;;5021331;28;20408;-58
2023/04/03 05:34:02;;;;;;;;;;;7.60;53.10;;;;;;5020225;28;19918;-58
2023/04/03 05:36:27;;;;;;;;;;;7.90;52.30;;;;;;5024393;28;19917;-59
2023/04/03 05:38:53;;;;;;;;;;;8.20;51.70;;;;;;5026828;28;19991;-59
2023/04/03 05:41:20;;;;;;;;;;;8.40;50.80;;;;;;5027613;28;20312;-59
2023/04/03 05:43:46;;;;;;;;;;;8.70;50.30;;;;;;5020641;28;19950;-61
2023/04/03 05:46:14;;;;;;;;;;;9.00;50.30;;;;;;5031401;28;22381;-59
2023/04/03 05:48:39;;;;;;;;;;;9.30;50.30;;;;;;5032186;28;19959;-59
2023/04/03 05:51:06;;;;;;;;;;;9.60;48.90;;;;;;5032382;28;19964;-58
2023/04/03 05:53:33;;;;;;;;;;;9.90;48.00;;;;;;5032070;28;19949;-58
2023/04/03 05:55:58;;;;;;;;;;;10.10;46.70;;;;;;5032018;28;19917;-58
2023/04/03 05:58:24;;;;;;;;;;;10.40;46.00;;;;;;5031900;28;20203;-58
2023/04/03 06:00:49;;;;;;;;;;;10.70;45.80;;;;;;5035331;28;19921;-58
2023/04/03 06:03:15;;;;;;;;;;;11.00;46.30;;;;;;5011910;28;19975;-58
2023/04/03 06:05:41;;;;;;;;;;;11.30;46.40;;;;;;5012812;28;20476;-61
2023/04/03 06:08:07;;;;;;;;;;;11.70;46.90;;;;;;5011774;28;19917;-58
2023/04/03 06:10:32;;;;;;;;;;;12.20;45.90;;;;;;5015719;28;20383;-58
2023/04/03 06:12:58;;;;;;;;;;;12.50;44.70;;;;;;5011604;28;19921;-58
2023/04/03 06:15:23;;;;;;;;;;;12.80;43.10;;;;;;5015268;28;20480;-58
2023/04/03 06:17:49;;;;;;;;;;;13.20;41.90;;;;;;5030478;28;19921;-64
2023/04/03 06:20:14;;;;;;;;;;;13.40;42.10;;;;;;5023740;28;20094;-60
2023/04/03 06:22:40;;;;;;;;;;;13.80;42.10;;;;;;5016797;28;19967;-59
2023/04/03 06:25:06;;;;;;;;;;;14.00;41.10;;;;;;5029630;28;20287;-59
2023/04/03 06:27:31;;;;;;;;;;;14.30;40.80;;;;;;5031131;28;19909;-60
2023/04/03 06:29:57;;;;;;;;;;;14.60;39.90;;;;;;5030171;28;19967;-59
2023/04/03 06:32:22;;;;;;;;;;;14.80;39.20;;;;;;5012016;28;20008;-62
2023/04/03 06:34:47;;;;;;;;;;;15.10;38.10;;;;;;5030302;28;19956;-63
2023/04/03 06:37:17;;;;;;;;;;;15.30;37.50;;;;;;5026559;28;19996;-59
2023/04/03 06:39:42;;;;;;;;;;;15.60;36.50;;;;;;5020985;28;19939;-60
2023/04/03 06:42:08;;;;;;;;;;;15.70;35.40;;;;;;5023106;28;19979;-58
2023/04/03 06:44:34;;;;;;;;;;;15.80;35.40;;;;;;5024269;28;20459;-58
2023/04/03 06:46:59;;;;;;;;;;;16.10;36.50;;;;;;5031451;28;19917;-58
2023/04/03 06:49:26;;;;;;;;;;;16.40;35.40;;;;;;5018695;28;19964;-60
2023/04/03 06:51:51;;;;;;;;;;;16.70;35.70;;;;;;5013153;28;20000;-58
2023/04/03 06:54:18;;;;;;;;;;;16.90;34.80;;;;;;5027064;28;20020;-58
2023/04/03 06:56:43;;;;;;;;;;;17.00;33.30;;;;;;5031317;28;19985;-58
2023/04/03 06:59:09;;;;;;;;;;;17.10;32.20;;;;;;5027477;28;19913;-60
2023/04/03 07:01:35;;;;;;;;;;;17.10;32.40;;;;;;5012912;28;20044;-59
2023/04/03 07:04:00;;;;;;;;;;;17.20;32.30;;;;;;5027352;28;20012;-58
2023/04/03 07:06:28;;;;;;;;;;;17.40;32.00;;;;;;5030907;28;19918;-59
2023/04/03 07:08:54;;;;;;;;;;;17.60;31.20;;;;;;5030734;28;20318;-59
2023/04/03 07:11:20;;;;;;;;;;;17.70;30.30;;;;;;5031481;28;19914;-58
2023/04/03 07:13:45;;;;;;;;;;;17.70;30.30;;;;;;5030417;28;19913;-59
2023/04/03 07:16:11;;;;;;;;;;;17.90;31.20;;;;;;5028243;28;19913;-58
2023/04/03 07:18:36;;;;;;;;;;;18.10;29.30;;;;;;5030885;28;19956;-59
2023/04/03 07:21:02;;;;;;;;;;;18.00;27.10;;;;;;5032546;28;20344;-59
2023/04/03 07:23:27;;;;;;;;;;;17.90;27.50;;;;;;5031734;28;19917;-59
2023/04/03 07:25:53;;;;;;;;;;;17.90;28.80;;;;;;5030361;28;19917;-59
2023/04/03 07:28:20;;;;;;;;;;;18.10;27.80;;;;;;5034351;28;20276;-58
2023/04/03 07:30:46;;;;;;;;;;;18.10;26.70;;;;;;5034554;28;19925;-59
2023/04/03 07:33:13;;;;;;;;;;;18.00;26.60;;;;;;5033789;28;19909;-59
2023/04/03 07:35:38;;;;;;;;;;;18.00;26.30;;;;;;5035992;28;19917;-59
2023/04/03 07:38:04;;;;;;;;;;;17.90;25.70;;;;;;5035986;28;19914;-59
2023/04/03 07:40:29;;;;;;;;;;;17.80;26.20;;;;;;5039122;28;20292;-58
2023/04/03 07:42:56;;;;;;;;;;;17.90;26.00;;;;;;5034102;28;20388;-59
2023/04/03 07:45:22;;;;;;;;;;;17.80;25.60;;;;;;5027557;28;19940;-59
2023/04/03 07:47:48;;;;;;;;;;;17.90;25.70;;;;;;5032270;28;19917;-59
2023/04/03 07:50:14;;;;;;;;;;;17.90;25.80;;;;;;5041989;28;19967;-59
2023/04/03 07:52:40;;;;;;;;;;;17.90;25.60;;;;;;5033596;28;19959;-58
2023/04/03 07:55:06;;;;;;;;;;;17.80;24.50;;;;;;5030437;28;19940;-58
2023/04/03 07:57:31;;;;;;;;;;;17.80;25.20;;;;;;5033909;28;19952;-57
2023/04/03 07:59:57;;;;;;;;;;;17.70;24.90;;;;;;5031358;28;20009;-57
2023/04/03 08:02:22;;;;;;;;;;;17.80;24.60;;;;;;5030091;28;19929;-57
2023/04/03 08:04:47;;;;;;;;;;;17.70;25.30;;;;;;5026731;28;19921;-58
2023/04/03 08:07:13;;;;;;;;;;;17.80;24.80;;;;;;5031827;28;19925;-57
2023/04/03 08:09:38;;;;;;;;;;;17.70;24.80;;;;;;5025983;28;20003;-59
2023/04/03 08:12:04;;;;;;;;;;;17.70;25.00;;;;;;5033215;28;20368;-61
2023/04/03 08:14:34;;;;;;;;;;;17.80;24.50;;;;;;5030241;28;19913;-59
2023/04/03 08:17:00;;;;;;;;;;;17.80;24.50;;;;;;5032344;28;20431;-59
2023/04/03 08:19:26;;;;;;;;;;;17.80;24.50;;;;;;5013749;28;20008;-59
2023/04/03 08:21:51;;;;;;;;;;;17.80;24.40;;;;;;5033235;28;19917;-60
2023/04/03 08:24:17;;;;;;;;;;;17.80;24.70;;;;;;5032435;28;19924;-59
2023/04/03 08:26:42;;;;;;;;;;;17.90;24.70;;;;;;5033677;28;20028;-58
2023/04/03 08:29:08;;;;;;;;;;;17.80;24.90;;;;;;5033260;28;19909;-59
2023/04/03 08:31:33;;;;;;;;;;;17.90;24.90;;;;;;5028965;28;19917;-61
2023/04/03 08:33:59;;;;;;;;;;;17.90;24.10;;;;;;5044577;28;19912;-59
2023/04/03 08:36:26;;;;;;;;;;;17.80;24.30;;;;;;5027578;28;19922;-59
2023/04/03 08:38:52;;;;;;;;;;;17.80;24.70;;;;;;5034696;28;20007;-59
2023/04/03 08:41:17;;;;;;;;;;;17.90;24.90;;;;;;5038611;28;20285;-58
2023/04/03 08:43:55;;;;;;;;;;;17.70;23.90;;;;;;5028267;28;19917;-59
2023/04/03 08:46:22;;;;;;;;;;;17.50;24.10;;;;;;5033208;28;19968;-58
2023/04/03 08:48:48;;;;;;;;;;;17.50;24.60;;;;;;5032760;28;19914;-59
2023/04/03 08:51:16;;;;;;;;;;;17.80;24.90;;;;;;5029719;28;20292;-59
2023/04/03 08:53:43;;;;;;;;;;;18.00;25.00;;;;;;5031018;28;19913;-58
2023/04/03 08:56:09;;;;;;;;;;;18.10;24.10;;;;;;5024915;28;20274;-59
2023/04/03 08:58:44;;;;;;;;;;;17.90;24.10;;;;;;5032979;28;20311;-59
2023/04/03 09:01:18;;;;;;;;;;;18.00;24.60;;;;;;5030427;28;19917;-59
2023/04/03 09:03:44;;;;;;;;;;;18.20;24.80;;;;;;5033106;28;19951;-59
2023/04/03 09:06:18;;;;;;;;;;;18.30;24.00;;;;;;5024438;28;20309;-59
2023/04/03 09:08:48;;;;;;;;;;;18.40;24.90;;;;;;5032031;28;19916;-58
2023/04/03 09:11:18;;;;;;;;;;;18.50;24.40;;;;;;5031859;28;19917;-59
2023/04/03 09:13:49;;;;;;;;;;;18.60;24.10;;;;;;5031571;28;20440;-57
2023/04/03 09:16:20;;;;;;;;;;;18.70;23.70;;;;;;5028805;28;20004;-58
2023/04/03 09:18:48;;;;;;;;;;;18.80;23.70;;;;;;5030402;28;19924;-60
2023/04/03 09:21:16;;;;;;;;;;;19.00;23.70;;;;;;5031577;28;19967;-59
2023/04/03 09:23:52;;;;;;;;;;;19.00;23.50;;;;;;5029879;28;19955;-59
2023/04/03 09:26:25;;;;;;;;;;;19.00;23.20;;;;;;5031428;28;19928;-57
2023/04/03 09:28:52;;;;;;;;;;;19.00;23.20;;;;;;5024457;28;19920;-59
2023/04/03 09:31:20;;;;;;;;;;;19.20;23.20;;;;;;5031097;28;19921;-60
2023/04/03 09:33:46;;;;;;;;;;;19.30;23.30;;;;;;5030308;28;20348;-60
2023/04/03 09:36:12;;;;;;;;;;;19.50;23.20;;;;;;5016441;28;20010;-59
2023/04/03 09:38:37;;;;;;;;;;;19.60;23.10;;;;;;5027699;28;20406;-60
2023/04/03 09:41:16;;;;;;;;;;;19.80;23.00;;;;;;5031395;28;19917;-63
2023/04/03 09:43:52;;;;;;;;;;;20.00;22.70;;;;;;5030667;28;19917;-60
2023/04/03 09:46:24;;;;;;;;;;;20.10;22.80;;;;;;5037698;28;21339;-60
2023/04/03 09:49:00;;;;;;;;;;;20.40;22.70;;;;;;5025278;28;20036;-60
2023/04/03 09:51:27;;;;;;;;;;;20.60;22.10;;;;;;5029489;28;19917;-60
2023/04/03 09:53:53;;;;;;;;;;;20.50;21.00;;;;;;5030407;28;19940;-60
2023/04/03 09:56:22;;;;;;;;;;;20.00;21.10;;;;;;5028846;28;20370;-60
2023/04/03 09:59:07;;;;;;;;;;;19.30;21.50;;;;;;5027393;28;20012;-57
2023/04/03 10:01:34;;;;;;;;;;;18.60;22.00;;;;;;5030632;28;19921;-58
2023/04/03 10:04:08;;;;;;;;;;;18.10;22.70;;;;;;5028188;28;19924;-59
2023/04/03 10:06:35;;;;;;;;;;;17.70;22.90;;;;;;5031209;28;19917;-58
2023/04/03 10:09:04;;;;;;;;;;;17.30;22.80;;;;;;5025326;28;19913;-58
2023/04/03 10:11:30;;;;;;;;;;;17.10;23.40;;;;;;5018684;28;20353;-59
2023/04/03 10:13:59;;;;;;;;;;;17.30;23.10;;;;;;5018280;28;19920;-59
2023/04/03 10:16:40;;;;;;;;;;;17.60;23.00;;;;;;5024087;28;19917;-59
2023/04/03 10:19:31;;;;;;;;;;;18.00;23.20;;;;;;5029848;28;20301;-59
2023/04/03 10:22:19;;;;;;;;;;;18.50;22.60;;;;;;5032557;28;19974;-61
2023/04/03 10:25:00;;;;;;;;;;;18.80;22.00;;;;;;5016080;28;20004;-59
2023/04/03 10:27:44;;;;;;;;;;;18.80;21.90;;;;;;5030137;28;19944;-59
2023/04/03 10:30:21;;;;;;;;;;;19.20;21.50;;;;;;5026288;28;20022;-59
2023/04/03 10:32:54;;;;;;;;;;;19.10;21.10;;;;;;5030066;28;20419;-58
2023/04/03 10:35:39;;;;;;;;;;;19.40;21.20;;;;;;5034295;28;20029;-58
2023/04/03 10:38:18;;;;;;;;;;;19.80;21.10;;;;;;5026784;28;19914;-58
2023/04/03 10:40:49;;;;;;;;;;;20.00;20.70;;;;;;5029939;28;20404;-59
2023/04/03 10:43:18;;;;;;;;;;;19.90;20.70;;;;;;5028583;28;20369;-58
2023/04/03 10:45:49;;;;;;;;;;;20.00;20.90;;;;;;5029977;28;20324;-60
2023/04/03 10:48:28;;;;;;;;;;;20.20;21.10;;;;;;5027722;28;19967;-58
2023/04/03 10:51:14;;;;;;;;;;;19.80;20.90;;;;;;5030315;28;19917;-58
2023/04/03 10:53:43;;;;;;;;;;;18.90;20.90;;;;;;5028348;28;20022;-58
2023/04/03 10:56:18;;;;;;;;;;;18.40;21.60;;;;;;5031664;28;19917;-59
2023/04/03 10:58:45;;;;;;;;;;;18.00;22.20;;;;;;5033672;28;19909;-58
2023/04/03 11:01:16;;;;;;;;;;;18.00;22.30;;;;;;5030462;28;19921;-59
2023/04/03 11:03:47;;;;;;;;;;;18.30;22.40;;;;;;5031034;28;19917;-59
2023/04/03 11:06:14;;;;;;;;;;;18.50;22.60;;;;;;5036064;28;20273;-59
2023/04/03 11:08:58;;;;;;;;;;;19.00;22.10;;;;;;5032053;28;19920;-58
2023/04/03 11:11:27;;;;;;;;;;;19.10;22.00;;;;;;5033726;28;19925;-59
2023/04/03 11:13:56;;;;;;;;;;;19.60;22.30;;;;;;5029381;28;19913;-59
2023/04/03 11:16:26;;;;;;;;;;;20.20;21.80;;;;;;5033642;28;19940;-58
2023/04/03 11:18:52;;;;;;;;;;;20.30;21.20;;;;;;5033127;28;19909;-59
2023/04/03 11:21:44;;;;;;;;;;;19.90;21.30;;;;;;5036497;28;19925;-58
2023/04/03 11:24:17;;;;;;;;;;;19.60;22.00;;;;;;5035849;28;19917;-59
2023/04/03 11:26:42;;;;;;;;;;;19.50;22.60;;;;;;5033456;28;19918;-59
2023/04/03 11:29:12;;;;;;;;;;;20.10;22.30;;;;;;5027316;28;19913;-59
2023/04/03 11:31:37;;;;;;;;;;;20.50;21.40;;;;;;5032889;28;19925;-59
2023/04/03 11:34:03;;;;;;;;;;;20.50;21.10;;;;;;5027985;28;19921;-59
2023/04/03 11:36:47;;;;;;;;;;;20.80;20.70;;;;;;5040592;28;19917;-59
2023/04/03 11:39:31;;;;;;;;;;;21.10;20.60;;;;;;5034799;28;19921;-59
2023/04/03 11:42:36;;;;;;;;;;;21.50;20.10;;;;;;5022368;28;20403;-59
2023/04/03 11:45:16;;;;;;;;;;;21.10;19.70;;;;;;5021522;28;19979;-59
2023/04/03 11:47:47;;;;;;;;;;;20.80;19.80;;;;;;5031726;28;19941;-59
2023/04/03 11:50:30;;;;;;;;;;;20.60;20.10;;;;;;5020185;28;19917;-60
2023/04/03 11:52:57;;;;;;;;;;;20.60;20.40;;;;;;5029816;28;19917;-59
2023/04/03 11:55:31;;;;;;;;;;;20.00;20.60;;;;;;5031835;28;20004;-59
2023/04/03 11:57:57;;;;;;;;;;;19.50;21.10;;;;;;5040733;28;19913;-59
2023/04/03 12:00:41;;;;;;;;;;;19.20;21.50;;;;;;5032543;28;20391;-59
2023/04/03 12:03:26;;;;;;;;;;;19.10;21.90;;;;;;5014438;28;19949;-58
2023/04/03 12:05:57;;;;;;;;;;;19.00;21.60;;;;;;5025756;28;19921;-58
2023/04/03 12:08:29;;;;;;;;;;;19.10;21.70;;;;;;5034130;28;19917;-59
2023/04/03 12:11:10;;;;;;;;;;;19.00;21.80;;;;;;5033531;28;19924;-58
2023/04/03 12:13:36;;;;;;;;;;;18.90;21.70;;;;;;5034077;28;19960;-58
2023/04/03 12:16:03;;;;;;;;;;;19.20;22.00;;;;;;5028890;28;19956;-59
2023/04/03 12:18:53;;;;;;;;;;;19.30;21.60;;;;;;5032852;28;19913;-59
2023/04/03 12:21:22;;;;;;;;;;;19.20;21.50;;;;;;5031631;28;19924;-59
2023/04/03 12:24:00;;;;;;;;;;;18.70;21.70;;;;;;5029675;28;19917;-59
2023/04/03 12:26:27;;;;;;;;;;;18.30;22.40;;;;;;5022627;28;20578;-60
2023/04/03 12:28:53;;;;;;;;;;;18.10;22.60;;;;;;5043948;28;19948;-59
2023/04/03 12:31:19;;;;;;;;;;;17.70;22.30;;;;;;5026922;28;19921;-60
2023/04/03 12:34:00;;;;;;;;;;;17.30;22.20;;;;;;5030252;28;19951;-59
2023/04/03 12:36:30;;;;;;;;;;;17.00;22.70;;;;;;5033924;28;19921;-59
2023/04/03 12:39:15;;;;;;;;;;;16.50;23.20;;;;;;5031001;28;19994;-61
2023/04/03 12:42:00;;;;;;;;;;;16.20;23.40;;;;;;5032477;28;19917;-60
2023/04/03 12:44:37;;;;;;;;;;;15.90;24.00;;;;;;5030974;28;20309;-58
2023/04/03 12:47:10;;;;;;;;;;;15.70;24.40;;;;;;5013573;28;19923;-58
2023/04/03 12:49:41;;;;;;;;;;;15.60;24.70;;;;;;5040561;28;19928;-58
2023/04/03 12:52:25;;;;;;;;;;;15.50;24.80;;;;;;5046575;28;19925;-58
2023/04/03 12:54:51;;;;;;;;;;;15.40;24.80;;;;;;5013204;28;20321;-58
2023/04/03 12:57:27;;;;;;;;;;;15.20;24.80;;;;;;5017942;28;19957;-59
2023/04/03 12:59:52;;;;;;;;;;;15.20;25.00;;;;;;5032785;28;19944;-58
2023/04/03 13:02:24;;;;;;;;;;;15.00;25.30;;;;;;5031451;28;20026;-58
2023/04/03 13:04:50;;;;;;;;;;;15.00;25.40;;;;;;5031988;28;19955;-59
2023/04/03 13:07:28;;;;;;;;;;;14.90;25.50;;;;;;5032841;28;20368;-58
2023/04/03 13:10:01;;;;;;;;;;;14.80;25.80;;;;;;5030775;28;19909;-58
2023/04/03 13:12:27;;;;;;;;;;;15.40;25.40;;;;;;5013046;28;20020;-58
2023/04/03 13:14:54;;;;;;;;;;;15.30;25.30;;;;;;5016208;28;20297;-59
2023/04/03 13:17:21;;;;;;;;;;;15.90;25.00;;;;;;5033194;28;19960;-59
2023/04/03 13:19:46;;;;;;;;;;;16.50;24.70;;;;;;5030945;28;19920;-59
2023/04/03 13:22:23;;;;;;;;;;;17.20;24.10;;;;;;5040871;28;19917;-59
2023/04/03 13:24:50;;;;;;;;;;;17.60;23.50;;;;;;5013191;28;20392;-62
2023/04/03 13:27:16;;;;;;;;;;;17.80;23.10;;;;;;5012259;28;20004;-59
2023/04/03 13:29:42;;;;;;;;;;;18.10;22.90;;;;;;5014755;28;19995;-59
2023/04/03 13:32:17;;;;;;;;;;;18.20;22.60;;;;;;5037849;28;20023;-59
2023/04/03 13:34:43;;;;;;;;;;;18.10;22.40;;;;;;5045432;28;20028;-64
2023/04/03 13:37:23;;;;;;;;;;;18.00;22.40;;;;;;5012317;28;19926;-59
2023/04/03 13:39:58;;;;;;;;;;;17.80;22.50;;;;;;5014925;28;19921;-62
2023/04/03 13:42:26;;;;;;;;;;;17.80;23.00;;;;;;5032330;28;19967;-59
2023/04/03 13:45:10;;;;;;;;;;;17.50;22.20;;;;;;5027437;28;19931;-61
2023/04/03 13:47:40;;;;;;;;;;;17.30;22.30;;;;;;5031893;28;20392;-59
2023/04/03 13:50:11;;;;;;;;;;;17.00;22.70;;;;;;5029002;28;19917;-59
2023/04/03 13:52:57;;;;;;;;;;;16.70;22.60;;;;;;5031591;28;20067;-61
2023/04/03 13:55:27;;;;;;;;;;;16.30;22.90;;;;;;5022800;28;19917;-59
2023/04/03 13:57:54;;;;;;;;;;;16.10;23.50;;;;;;5031733;28;19909;-60
2023/04/03 14:00:40;;;;;;;;;;;16.20;23.70;;;;;;5030947;28;19917;-60
2023/04/03 14:03:26;;;;;;;;;;;16.20;23.80;;;;;;5030239;28;19991;-59
2023/04/03 14:05:52;;;;;;;;;;;16.20;23.60;;;;;;5024248;28;19917;-59
2023/04/03 14:08:18;;;;;;;;;;;16.10;23.60;;;;;;5029228;28;19917;-58
2023/04/03 14:10:43;;;;;;;;;;;15.70;23.60;;;;;;5031853;28;19917;-58
2023/04/03 14:13:11;;;;;;;;;;;15.40;23.70;;;;;;5029695;28;19909;-58
2023/04/03 14:15:37;;;;;;;;;;;15.20;23.80;;;;;;5022755;28;20341;-59
2023/04/03 14:18:02;;;;;;;;;;;14.90;24.40;;;;;;5030800;28;19913;-59
2023/04/03 14:20:28;;;;;;;;;;;14.90;24.60;;;;;;5030740;28;19929;-59
2023/04/03 14:22:54;;;;;;;;;;;15.00;24.70;;;;;;5031463;28;19912;-59
2023/04/03 14:25:19;;;;;;;;;;;15.20;24.90;;;;;;5027827;28;19921;-59
2023/04/03 14:27:47;;;;;;;;;;;15.20;24.60;;;;;;5031276;28;19952;-61
2023/04/03 14:30:23;;;;;;;;;;;15.00;24.70;;;;;;5030193;28;19936;-58